sensor_id;sensor_type;location;lat;lon;timestamp;pressure;altitude;pressure_sealevel;temperature;humidity
54910;BME280;63189;51.240;9.964;2023-01-29T00:01:43;99072.47;;;-3.60;92.10
54910;BME280;63189;51.240;9.964;2023-01-29T00:04:09;99068.06;;;-3.64;91.80
54910;BME280;63189;51.240;9.964;2023-01-29T00:06:34;99059.47;;;-3.66;91.80
54910;BME280;63189;51.240;9.964;2023-01-29T00:08:59;99057.78;;;-3.66;91.90
54910;BME280;63189;51.240;9.964;2023-01-29T00:11:25;99058.53;;;-3.68;91.85
54910;BME280;63189;51.240;9.964;2023-01-29T00:13:51;99057.53;;;-3.72;92.35
54910;BME280;63189;51.240;9.964;2023-01-29T00:16:17;99054.78;;;-3.77;92.27
54910;BME280;63189;51.240;9.964;2023-01-29T00:18:43;99055.50;;;-3.79;92.12
54910;BME280;63189;51.240;9.964;2023-01-29T00:21:16;99049.28;;;-3.86;92.10
54910;BME280;63189;51.240;9.964;2023-01-29T00:23:42;99045.13;;;-3.84;92.63
54910;BME280;63189;51.240;9.964;2023-01-29T00:26:09;99050.22;;;-3.84;92.45
54910;BME280;63189;51.240;9.964;2023-01-29T00:28:35;99041.50;;;-3.89;92.68
54910;BME280;63189;51.240;9.964;2023-01-29T00:31:09;99034.66;;;-3.90;92.75
54910;BME280;63189;51.240;9.964;2023-01-29T00:33:34;99031.19;;;-3.92;92.79
54910;BME280;63189;51.240;9.964;2023-01-29T00:36:07;99024.22;;;-3.96;92.73
54910;BME280;63189;51.240;9.964;2023-01-29T00:38:34;99026.78;;;-3.96;92.28
54910;BME280;63189;51.240;9.964;2023-01-29T00:41:10;99022.28;;;-4.01;91.95
54910;BME280;63189;51.240;9.964;2023-01-29T00:43:54;99022.47;;;-3.97;92.71
54910;BME280;63189;51.240;9.964;2023-01-29T00:46:39;99026.56;;;-4.00;93.90
54910;BME280;63189;51.240;9.964;2023-01-29T00:49:05;99024.81;;;-4.01;93.64
54910;BME280;63189;51.240;9.964;2023-01-29T00:51:30;99018.78;;;-4.03;93.66
54910;BME280;63189;51.240;9.964;2023-01-29T00:53:56;99009.59;;;-4.00;93.29
54910;BME280;63189;51.240;9.964;2023-01-29T00:56:23;99010.47;;;-3.99;93.75
54910;BME280;63189;51.240;9.964;2023-01-29T00:58:49;99016.44;;;-3.99;93.64
54910;BME280;63189;51.240;9.964;2023-01-29T01:01:14;99008.53;;;-4.05;93.58
54910;BME280;63189;51.240;9.964;2023-01-29T01:03:39;99008.44;;;-4.07;93.58
54910;BME280;63189;51.240;9.964;2023-01-29T01:06:09;98998.19;;;-4.08;93.14
54910;BME280;63189;51.240;9.964;2023-01-29T01:08:34;99010.13;;;-4.07;92.64
54910;BME280;63189;51.240;9.964;2023-01-29T01:11:19;99006.81;;;-4.06;92.72
54910;BME280;63189;51.240;9.964;2023-01-29T01:13:44;99002.44;;;-4.09;93.57
54910;BME280;63189;51.240;9.964;2023-01-29T01:16:15;99004.25;;;-4.06;93.84
54910;BME280;63189;51.240;9.964;2023-01-29T01:18:41;98993.25;;;-4.05;94.52
54910;BME280;63189;51.240;9.964;2023-01-29T01:21:06;99003.56;;;-4.02;94.33
54910;BME280;63189;51.240;9.964;2023-01-29T01:23:32;99007.06;;;-4.00;94.49
54910;BME280;63189;51.240;9.964;2023-01-29T01:25:58;99014.91;;;-3.95;95.20
54910;BME280;63189;51.240;9.964;2023-01-29T01:28:25;99008.38;;;-3.89;95.00
54910;BME280;63189;51.240;9.964;2023-01-29T01:30:51;99017.91;;;-3.85;95.52
54910;BME280;63189;51.240;9.964;2023-01-29T01:33:16;99008.59;;;-3.84;95.63
54910;BME280;63189;51.240;9.964;2023-01-29T01:35:43;99010.41;;;-3.82;96.15
54910;BME280;63189;51.240;9.964;2023-01-29T01:38:08;99008.72;;;-3.81;96.45
54910;BME280;63189;51.240;9.964;2023-01-29T01:40:34;99008.03;;;-3.77;96.55
54910;BME280;63189;51.240;9.964;2023-01-29T01:43:00;99004.88;;;-3.71;96.32
54910;BME280;63189;51.240;9.964;2023-01-29T01:45:34;99007.56;;;-3.68;96.71
54910;BME280;63189;51.240;9.964;2023-01-29T01:50:38;99021.38;;;-3.63;96.89
54910;BME280;63189;51.240;9.964;2023-01-29T01:53:08;99019.66;;;-3.64;97.18
54910;BME280;63189;51.240;9.964;2023-01-29T01:55:38;99011.19;;;-3.63;96.90
54910;BME280;63189;51.240;9.964;2023-01-29T01:58:09;99013.59;;;-3.66;97.76
54910;BME280;63189;51.240;9.964;2023-01-29T02:00:37;99013.47;;;-3.69;97.24
54910;BME280;63189;51.240;9.964;2023-01-29T02:03:03;99017.88;;;-3.65;97.50
54910;BME280;63189;51.240;9.964;2023-01-29T02:05:49;99023.13;;;-3.62;97.82
54910;BME280;63189;51.240;9.964;2023-01-29T02:08:41;99020.63;;;-3.61;97.85
54910;BME280;63189;51.240;9.964;2023-01-29T02:11:27;99008.00;;;-3.58;97.43
54910;BME280;63189;51.240;9.964;2023-01-29T02:13:52;99000.47;;;-3.55;97.42
54910;BME280;63189;51.240;9.964;2023-01-29T02:16:21;99008.28;;;-3.52;98.10
54910;BME280;63189;51.240;9.964;2023-01-29T02:18:47;99007.53;;;-3.49;98.42
54910;BME280;63189;51.240;9.964;2023-01-29T02:30:08;98973.09;;;-3.39;97.97
54910;BME280;63189;51.240;9.964;2023-01-29T02:32:47;98973.97;;;-3.39;97.34
54910;BME280;63189;51.240;9.964;2023-01-29T02:35:29;98973.16;;;-3.38;97.63
54910;BME280;63189;51.240;9.964;2023-01-29T02:48:24;98981.16;;;-3.29;97.95
54910;BME280;63189;51.240;9.964;2023-01-29T02:51:04;98980.34;;;-3.28;97.55
54910;BME280;63189;51.240;9.964;2023-01-29T02:56:00;98982.91;;;-3.28;96.27
54910;BME280;63189;51.240;9.964;2023-01-29T02:58:30;98967.34;;;-3.34;96.62
54910;BME280;63189;51.240;9.964;2023-01-29T03:01:02;98972.34;;;-3.37;96.74
54910;BME280;63189;51.240;9.964;2023-01-29T03:03:41;98971.28;;;-3.42;96.33
54910;BME280;63189;51.240;9.964;2023-01-29T03:06:23;98994.97;;;-3.44;96.51
54910;BME280;63189;51.240;9.964;2023-01-29T03:09:00;98999.81;;;-3.51;96.58
54910;BME280;63189;51.240;9.964;2023-01-29T03:11:29;99004.81;;;-3.54;96.85
54910;BME280;63189;51.240;9.964;2023-01-29T03:14:02;98999.38;;;-3.61;96.92
54910;BME280;63189;51.240;9.964;2023-01-29T03:16:33;98995.22;;;-3.59;97.29
54910;BME280;63189;51.240;9.964;2023-01-29T03:19:25;98999.50;;;-3.58;97.48
54910;BME280;63189;51.240;9.964;2023-01-29T03:21:56;98997.81;;;-3.58;97.03
54910;BME280;63189;51.240;9.964;2023-01-29T03:24:41;98996.06;;;-3.59;96.86
54910;BME280;63189;51.240;9.964;2023-01-29T03:27:32;98998.69;;;-3.57;96.96
54910;BME280;63189;51.240;9.964;2023-01-29T03:30:20;98993.53;;;-3.59;97.43
54910;BME280;63189;51.240;9.964;2023-01-29T03:33:07;98989.31;;;-3.58;97.58
54910;BME280;63189;51.240;9.964;2023-01-29T03:35:37;98986.00;;;-3.56;97.44
54910;BME280;63189;51.240;9.964;2023-01-29T03:38:06;98974.06;;;-3.57;98.14
54910;BME280;63189;51.240;9.964;2023-01-29T03:40:45;98977.38;;;-3.59;97.72
54910;BME280;63189;51.240;9.964;2023-01-29T03:48:35;98983.00;;;-3.66;98.06
54910;BME280;63189;51.240;9.964;2023-01-29T03:54:04;98986.38;;;-3.67;97.80
54910;BME280;63189;51.240;9.964;2023-01-29T03:56:32;98987.38;;;-3.64;97.76
54910;BME280;63189;51.240;9.964;2023-01-29T04:01:44;98992.38;;;-3.65;97.40
54910;BME280;63189;51.240;9.964;2023-01-29T04:04:16;98983.16;;;-3.63;97.37
54910;BME280;63189;51.240;9.964;2023-01-29T04:06:44;98981.47;;;-3.63;97.88
54910;BME280;63189;51.240;9.964;2023-01-29T04:09:15;98980.66;;;-3.62;97.60
54910;BME280;63189;51.240;9.964;2023-01-29T04:11:48;98970.47;;;-3.62;97.45
54910;BME280;63189;51.240;9.964;2023-01-29T04:14:15;98975.50;;;-3.63;98.01
54910;BME280;63189;51.240;9.964;2023-01-29T04:16:47;98974.56;;;-3.65;98.26
54910;BME280;63189;51.240;9.964;2023-01-29T04:19:15;98979.59;;;-3.67;98.12
54910;BME280;63189;51.240;9.964;2023-01-29T04:21:40;98975.34;;;-3.66;98.47
54910;BME280;63189;51.240;9.964;2023-01-29T04:24:06;98976.31;;;-3.64;98.51
54910;BME280;63189;51.240;9.964;2023-01-29T04:26:48;98988.25;;;-3.63;97.87
54910;BME280;63189;51.240;9.964;2023-01-29T04:32:10;98966.56;;;-3.74;98.04
54910;BME280;63189;51.240;9.964;2023-01-29T04:37:35;98960.59;;;-3.75;97.69
54910;BME280;63189;51.240;9.964;2023-01-29T04:40:13;98956.25;;;-3.76;97.91
54910;BME280;63189;51.240;9.964;2023-01-29T04:42:43;98956.16;;;-3.79;97.51
54910;BME280;63189;51.240;9.964;2023-01-29T04:45:19;98956.09;;;-3.81;97.87
54910;BME280;63189;51.240;9.964;2023-01-29T04:47:52;98953.66;;;-3.78;97.96
54910;BME280;63189;51.240;9.964;2023-01-29T04:50:26;98950.19;;;-3.80;97.57
54910;BME280;63189;51.240;9.964;2023-01-29T04:53:27;98946.59;;;-3.85;96.66
54910;BME280;63189;51.240;9.964;2023-01-29T04:56:12;98942.97;;;-3.90;96.95
54910;BME280;63189;51.240;9.964;2023-01-29T04:58:42;98940.22;;;-3.94;98.20
54910;BME280;63189;51.240;9.964;2023-01-29T05:01:14;98929.84;;;-3.99;97.94
54910;BME280;63189;51.240;9.964;2023-01-29T05:03:42;98922.19;;;-3.99;98.50
54910;BME280;63189;51.240;9.964;2023-01-29T05:06:11;98929.03;;;-3.98;98.79
54910;BME280;63189;51.240;9.964;2023-01-29T05:08:38;98941.63;;;-4.01;99.07
54910;BME280;63189;51.240;9.964;2023-01-29T05:11:04;98931.50;;;-3.99;99.52
54910;BME280;63189;51.240;9.964;2023-01-29T05:13:31;98934.19;;;-3.96;99.56
54910;BME280;63189;51.240;9.964;2023-01-29T05:16:20;98930.75;;;-3.97;99.49
54910;BME280;63189;51.240;9.964;2023-01-29T05:18:48;98922.13;;;-4.00;99.36
54910;BME280;63189;51.240;9.964;2023-01-29T05:21:13;98932.53;;;-3.96;99.22
54910;BME280;63189;51.240;9.964;2023-01-29T05:23:38;98928.16;;;-3.98;99.33
54910;BME280;63189;51.240;9.964;2023-01-29T05:26:04;98925.66;;;-3.97;99.28
54910;BME280;63189;51.240;9.964;2023-01-29T05:28:30;98920.66;;;-3.95;99.94
54910;BME280;63189;51.240;9.964;2023-01-29T05:30:55;98913.91;;;-3.95;100.00
54910;BME280;63189;51.240;9.964;2023-01-29T05:33:27;98897.59;;;-3.98;99.66
54910;BME280;63189;51.240;9.964;2023-01-29T05:35:53;98883.81;;;-4.03;99.80
54910;BME280;63189;51.240;9.964;2023-01-29T05:38:20;98881.19;;;-4.05;100.00
54910;BME280;63189;51.240;9.964;2023-01-29T05:40:45;98896.59;;;-4.02;100.00
54910;BME280;63189;51.240;9.964;2023-01-29T05:43:19;98887.16;;;-4.04;100.00
54910;BME280;63189;51.240;9.964;2023-01-29T05:45:56;98886.16;;;-4.08;100.00
54910;BME280;63189;51.240;9.964;2023-01-29T05:48:22;98879.47;;;-4.06;100.00
54910;BME280;63189;51.240;9.964;2023-01-29T05:50:48;98881.44;;;-3.99;100.00
54910;BME280;63189;51.240;9.964;2023-01-29T05:53:14;98889.81;;;-4.01;100.00
54910;BME280;63189;51.240;9.964;2023-01-29T05:55:46;98894.88;;;-4.03;100.00
54910;BME280;63189;51.240;9.964;2023-01-29T05:58:12;98899.16;;;-4.02;100.00
54910;BME280;63189;51.240;9.964;2023-01-29T06:00:40;98888.03;;;-4.04;100.00
54910;BME280;63189;51.240;9.964;2023-01-29T06:03:05;98903.31;;;-4.04;100.00
54910;BME280;63189;51.240;9.964;2023-01-29T06:05:31;98919.47;;;-4.03;100.00
54910;BME280;63189;51.240;9.964;2023-01-29T06:07:56;98911.63;;;-4.08;100.00
54910;BME280;63189;51.240;9.964;2023-01-29T06:10:21;98908.13;;;-4.10;100.00
54910;BME280;63189;51.240;9.964;2023-01-29T06:12:47;98909.81;;;-4.11;100.00
54910;BME280;63189;51.240;9.964;2023-01-29T06:15:12;98914.84;;;-4.12;100.00
54910;BME280;63189;51.240;9.964;2023-01-29T06:17:40;98917.44;;;-4.11;100.00
54910;BME280;63189;51.240;9.964;2023-01-29T06:20:06;98921.75;;;-4.10;100.00
54910;BME280;63189;51.240;9.964;2023-01-29T06:22:31;98943.03;;;-4.08;100.00
54910;BME280;63189;51.240;9.964;2023-01-29T06:24:57;98964.28;;;-4.07;100.00
54910;BME280;63189;51.240;9.964;2023-01-29T06:27:22;98964.44;;;-4.04;100.00
54910;BME280;63189;51.240;9.964;2023-01-29T06:29:48;98963.09;;;-3.96;100.00
54910;BME280;63189;51.240;9.964;2023-01-29T06:32:14;98955.47;;;-3.96;100.00
54910;BME280;63189;51.240;9.964;2023-01-29T06:34:39;98946.84;;;-3.98;100.00
54910;BME280;63189;51.240;9.964;2023-01-29T06:37:06;98950.91;;;-4.03;100.00
54910;BME280;63189;51.240;9.964;2023-01-29T06:39:32;98950.91;;;-4.03;100.00
54910;BME280;63189;51.240;9.964;2023-01-29T06:41:57;98950.78;;;-4.06;100.00
54910;BME280;63189;51.240;9.964;2023-01-29T06:44:23;98949.00;;;-4.07;100.00
54910;BME280;63189;51.240;9.964;2023-01-29T06:46:48;98951.72;;;-4.04;100.00
54910;BME280;63189;51.240;9.964;2023-01-29T06:49:13;98950.97;;;-4.01;100.00
54910;BME280;63189;51.240;9.964;2023-01-29T06:51:39;98949.34;;;-3.99;100.00
54910;BME280;63189;51.240;9.964;2023-01-29T06:54:04;98956.31;;;-3.95;100.00
54910;BME280;63189;51.240;9.964;2023-01-29T06:56:30;98964.22;;;-3.89;100.00
54910;BME280;63189;51.240;9.964;2023-01-29T06:58:56;98972.84;;;-3.86;100.00
54910;BME280;63189;51.240;9.964;2023-01-29T07:01:21;98980.63;;;-3.83;100.00
54910;BME280;63189;51.240;9.964;2023-01-29T07:03:48;98982.50;;;-3.79;100.00
54910;BME280;63189;51.240;9.964;2023-01-29T07:06:14;98972.31;;;-3.79;100.00
54910;BME280;63189;51.240;9.964;2023-01-29T07:08:40;98979.88;;;-3.80;100.00
54910;BME280;63189;51.240;9.964;2023-01-29T07:11:06;98979.06;;;-3.79;100.00
54910;BME280;63189;51.240;9.964;2023-01-29T07:13:32;98996.31;;;-3.73;100.00
54910;BME280;63189;51.240;9.964;2023-01-29T07:15:58;98999.03;;;-3.69;100.00
54910;BME280;63189;51.240;9.964;2023-01-29T07:18:25;98990.53;;;-3.69;100.00
54910;BME280;63189;51.240;9.964;2023-01-29T07:20:50;99003.44;;;-3.65;100.00
54910;BME280;63189;51.240;9.964;2023-01-29T07:23:15;98994.28;;;-3.61;100.00
54910;BME280;63189;51.240;9.964;2023-01-29T07:25:41;98979.00;;;-3.61;100.00
54910;BME280;63189;51.240;9.964;2023-01-29T07:28:07;98966.25;;;-3.61;100.00
54910;BME280;63189;51.240;9.964;2023-01-29T07:30:32;98970.53;;;-3.60;100.00
54910;BME280;63189;51.240;9.964;2023-01-29T07:33:02;98963.81;;;-3.58;100.00
54910;BME280;63189;51.240;9.964;2023-01-29T07:35:28;98949.44;;;-3.56;100.00
54910;BME280;63189;51.240;9.964;2023-01-29T07:37:53;98937.50;;;-3.57;100.00
54910;BME280;63189;51.240;9.964;2023-01-29T07:40:18;98949.72;;;-3.50;100.00
54910;BME280;63189;51.240;9.964;2023-01-29T07:42:44;98945.47;;;-3.50;100.00
54910;BME280;63189;51.240;9.964;2023-01-29T07:45:10;98954.13;;;-3.46;100.00
54910;BME280;63189;51.240;9.964;2023-01-29T07:47:35;98962.03;;;-3.40;100.00
54910;BME280;63189;51.240;9.964;2023-01-29T07:50:01;98958.66;;;-3.39;100.00
54910;BME280;63189;51.240;9.964;2023-01-29T07:52:29;98943.53;;;-3.34;100.00
54910;BME280;63189;51.240;9.964;2023-01-29T07:54:54;98944.50;;;-3.32;100.00
54910;BME280;63189;51.240;9.964;2023-01-29T07:57:20;98943.72;;;-3.30;100.00
54910;BME280;63189;51.240;9.964;2023-01-29T07:59:45;98937.06;;;-3.26;100.00
54910;BME280;63189;51.240;9.964;2023-01-29T08:02:11;98955.03;;;-3.23;100.00
54910;BME280;63189;51.240;9.964;2023-01-29T08:04:36;98955.19;;;-3.20;100.00
54910;BME280;63189;51.240;9.964;2023-01-29T08:07:01;98954.41;;;-3.17;100.00
54910;BME280;63189;51.240;9.964;2023-01-29T08:09:29;98948.50;;;-3.16;100.00
54910;BME280;63189;51.240;9.964;2023-01-29T08:11:54;98965.69;;;-3.12;100.00
54910;BME280;63189;51.240;9.964;2023-01-29T08:14:19;98974.22;;;-3.12;100.00
54910;BME280;63189;51.240;9.964;2023-01-29T08:16:45;98978.66;;;-3.06;100.00
54910;BME280;63189;51.240;9.964;2023-01-29T08:19:10;98974.38;;;-3.07;100.00
54910;BME280;63189;51.240;9.964;2023-01-29T08:21:35;98978.88;;;-3.02;100.00
54910;BME280;63189;51.240;9.964;2023-01-29T08:24:01;98983.31;;;-2.96;100.00
54910;BME280;63189;51.240;9.964;2023-01-29T08:26:26;98986.84;;;-2.93;100.00
54910;BME280;63189;51.240;9.964;2023-01-29T08:28:52;99014.25;;;-2.88;100.00
54910;BME280;63189;51.240;9.964;2023-01-29T08:31:22;99004.91;;;-2.88;100.00
54910;BME280;63189;51.240;9.964;2023-01-29T08:33:52;99007.50;;;-2.86;100.00
54910;BME280;63189;51.240;9.964;2023-01-29T08:36:18;99006.75;;;-2.84;100.00
54910;BME280;63189;51.240;9.964;2023-01-29T08:38:43;98991.34;;;-2.87;100.00
54910;BME280;63189;51.240;9.964;2023-01-29T08:41:08;98992.03;;;-2.91;100.00
54910;BME280;63189;51.240;9.964;2023-01-29T08:43:34;98983.38;;;-2.95;100.00
54910;BME280;63189;51.240;9.964;2023-01-29T08:46:03;98968.13;;;-2.93;100.00
54910;BME280;63189;51.240;9.964;2023-01-29T08:48:29;98957.19;;;-2.91;100.00
54910;BME280;63189;51.240;9.964;2023-01-29T08:50:59;98945.00;;;-2.98;99.71
54910;BME280;63189;51.240;9.964;2023-01-29T08:53:25;98938.31;;;-2.94;99.84
54910;BME280;63189;51.240;9.964;2023-01-29T08:55:51;98935.72;;;-2.96;100.00
54910;BME280;63189;51.240;9.964;2023-01-29T08:58:19;98940.06;;;-2.93;99.95
54910;BME280;63189;51.240;9.964;2023-01-29T09:00:47;98941.97;;;-2.87;100.00
54910;BME280;63189;51.240;9.964;2023-01-29T09:03:15;98942.09;;;-2.84;100.00
54910;BME280;63189;51.240;9.964;2023-01-29T09:05:41;98934.69;;;-2.78;100.00
54910;BME280;63189;51.240;9.964;2023-01-29T09:08:07;98918.72;;;-2.73;100.00
54910;BME280;63189;51.240;9.964;2023-01-29T09:10:36;98924.94;;;-2.66;99.62
54910;BME280;63189;51.240;9.964;2023-01-29T09:13:01;98912.31;;;-2.62;99.87
54910;BME280;63189;51.240;9.964;2023-01-29T09:15:27;98922.00;;;-2.53;99.35
54910;BME280;63189;51.240;9.964;2023-01-29T09:17:52;98916.69;;;-2.59;99.02
54910;BME280;63189;51.240;9.964;2023-01-29T09:20:18;98911.75;;;-2.54;99.01
54910;BME280;63189;51.240;9.964;2023-01-29T09:22:45;98903.16;;;-2.56;99.48
54910;BME280;63189;51.240;9.964;2023-01-29T09:25:12;98903.31;;;-2.52;98.36
54910;BME280;63189;51.240;9.964;2023-01-29T09:27:41;98912.56;;;-2.55;97.48
54910;BME280;63189;51.240;9.964;2023-01-29T09:30:07;98921.06;;;-2.55;96.82
54910;BME280;63189;51.240;9.964;2023-01-29T09:32:33;98921.03;;;-2.56;96.77
54910;BME280;63189;51.240;9.964;2023-01-29T09:34:59;98929.59;;;-2.54;96.92
54910;BME280;63189;51.240;9.964;2023-01-29T09:37:34;98929.56;;;-2.56;96.20
54910;BME280;63189;51.240;9.964;2023-01-29T09:39:59;98929.66;;;-2.53;95.48
54910;BME280;63189;51.240;9.964;2023-01-29T09:43:01;98923.06;;;-2.48;96.38
54910;BME280;63189;51.240;9.964;2023-01-29T09:45:29;98924.84;;;-2.45;96.45
54910;BME280;63189;51.240;9.964;2023-01-29T09:47:58;98923.31;;;-2.40;95.59
54910;BME280;63189;51.240;9.964;2023-01-29T09:50:38;98922.44;;;-2.41;95.66
54910;BME280;63189;51.240;9.964;2023-01-29T09:56:12;98916.47;;;-2.41;95.74
54910;BME280;63189;51.240;9.964;2023-01-29T09:58:39;98921.56;;;-2.41;96.08
54910;BME280;63189;51.240;9.964;2023-01-29T10:01:21;98913.91;;;-2.41;95.15
54910;BME280;63189;51.240;9.964;2023-01-29T10:09:42;98895.94;;;-2.44;94.48
54910;BME280;63189;51.240;9.964;2023-01-29T10:23:06;98884.69;;;-2.49;94.89
54910;BME280;63189;51.240;9.964;2023-01-29T10:25:40;98882.25;;;-2.46;95.52
54910;BME280;63189;51.240;9.964;2023-01-29T10:30:45;98866.06;;;-2.47;94.58
54910;BME280;63189;51.240;9.964;2023-01-29T10:33:27;98875.59;;;-2.41;95.27
54910;BME280;63189;51.240;9.964;2023-01-29T10:36:02;98863.78;;;-2.39;95.08
54910;BME280;63189;51.240;9.964;2023-01-29T10:46:40;98843.72;;;-2.28;94.67
54910;BME280;63189;51.240;9.964;2023-01-29T10:54:32;98832.13;;;-2.19;95.81
54910;BME280;63189;51.240;9.964;2023-01-29T10:59:55;98822.09;;;-2.13;94.78
54910;BME280;63189;51.240;9.964;2023-01-29T11:02:24;98820.59;;;-2.08;95.03
54910;BME280;63189;51.240;9.964;2023-01-29T11:04:50;98826.63;;;-2.06;94.88
54910;BME280;63189;51.240;9.964;2023-01-29T11:07:17;98829.44;;;-1.98;94.94
54910;BME280;63189;51.240;9.964;2023-01-29T11:09:56;98827.75;;;-1.97;93.99
54910;BME280;63189;51.240;9.964;2023-01-29T11:12:27;98827.00;;;-1.93;94.37
54910;BME280;63189;51.240;9.964;2023-01-29T11:15:15;98815.06;;;-1.94;94.32
54910;BME280;63189;51.240;9.964;2023-01-29T11:18:09;98805.69;;;-1.94;95.28
54910;BME280;63189;51.240;9.964;2023-01-29T11:20:39;98803.28;;;-1.89;95.01
54910;BME280;63189;51.240;9.964;2023-01-29T11:23:23;98794.09;;;-1.84;94.42
54910;BME280;63189;51.240;9.964;2023-01-29T11:25:52;98783.00;;;-1.85;93.95
54910;BME280;63189;51.240;9.964;2023-01-29T11:33:47;98767.13;;;-1.75;93.99
54910;BME280;63189;51.240;9.964;2023-01-29T11:36:38;98764.66;;;-1.71;93.22
54910;BME280;63189;51.240;9.964;2023-01-29T11:41:41;98784.31;;;-1.69;93.10
54910;BME280;63189;51.240;9.964;2023-01-29T11:44:26;98767.34;;;-1.67;92.91
54910;BME280;63189;51.240;9.964;2023-01-29T11:46:52;98768.28;;;-1.65;93.12
54910;BME280;63189;51.240;9.964;2023-01-29T11:49:23;98762.34;;;-1.64;92.94
54910;BME280;63189;51.240;9.964;2023-01-29T11:51:53;98765.94;;;-1.57;92.75
54910;BME280;63189;51.240;9.964;2023-01-29T11:54:22;98766.88;;;-1.55;92.74
54910;BME280;63189;51.240;9.964;2023-01-29T11:56:51;98760.03;;;-1.56;91.95
54910;BME280;63189;51.240;9.964;2023-01-29T12:02:18;98761.06;;;-1.50;91.48
54910;BME280;63189;51.240;9.964;2023-01-29T12:04:45;98750.84;;;-1.50;92.57
54910;BME280;63189;51.240;9.964;2023-01-29T12:07:13;98750.75;;;-1.53;92.22
54910;BME280;63189;51.240;9.964;2023-01-29T12:09:40;98749.09;;;-1.51;92.07
54910;BME280;63189;51.240;9.964;2023-01-29T12:12:40;98751.69;;;-1.49;92.26
54910;BME280;63189;51.240;9.964;2023-01-29T12:15:21;98740.78;;;-1.43;92.63
54910;BME280;63189;51.240;9.964;2023-01-29T12:18:00;98740.88;;;-1.40;91.93
54910;BME280;63189;51.240;9.964;2023-01-29T12:20:39;98731.56;;;-1.38;92.37
54910;BME280;63189;51.240;9.964;2023-01-29T12:23:15;98724.91;;;-1.33;92.46
54910;BME280;63189;51.240;9.964;2023-01-29T12:32:31;98712.25;;;-1.27;91.95
54910;BME280;63189;51.240;9.964;2023-01-29T12:35:18;98713.09;;;-1.28;92.33
54910;BME280;63189;51.240;9.964;2023-01-29T12:40:13;98696.00;;;-1.29;91.95
54910;BME280;63189;51.240;9.964;2023-01-29T12:42:42;98697.81;;;-1.25;92.09
54910;BME280;63189;51.240;9.964;2023-01-29T12:45:16;98701.34;;;-1.22;92.70
54910;BME280;63189;51.240;9.964;2023-01-29T12:47:46;98703.88;;;-1.23;91.58
54910;BME280;63189;51.240;9.964;2023-01-29T12:50:21;98684.34;;;-1.20;91.73
54910;BME280;63189;51.240;9.964;2023-01-29T12:52:55;98689.56;;;-1.15;91.68
54910;BME280;63189;51.240;9.964;2023-01-29T12:55:27;98676.88;;;-1.12;92.04
54910;BME280;63189;51.240;9.964;2023-01-29T12:58:00;98674.38;;;-1.10;92.12
54910;BME280;63189;51.240;9.964;2023-01-29T13:00:36;98673.56;;;-1.08;91.67
54910;BME280;63189;51.240;9.964;2023-01-29T13:05:51;98652.41;;;-1.02;91.10
54910;BME280;63189;51.240;9.964;2023-01-29T13:10:54;98644.75;;;-1.01;91.76
54910;BME280;63189;51.240;9.964;2023-01-29T13:13:51;98633.72;;;-0.98;91.08
54910;BME280;63189;51.240;9.964;2023-01-29T13:16:21;98632.94;;;-0.96;91.64
54910;BME280;63189;51.240;9.964;2023-01-29T13:18:59;98633.91;;;-0.92;91.98
54910;BME280;63189;51.240;9.964;2023-01-29T13:21:35;98628.78;;;-0.92;91.70
54910;BME280;63189;51.240;9.964;2023-01-29T13:24:06;98624.44;;;-0.95;91.23
54910;BME280;63189;51.240;9.964;2023-01-29T13:26:36;98621.06;;;-0.94;91.48
54910;BME280;63189;51.240;9.964;2023-01-29T13:29:02;98623.69;;;-0.91;90.78
54910;BME280;63189;51.240;9.964;2023-01-29T13:31:37;98633.03;;;-0.93;90.97
54910;BME280;63189;51.240;9.964;2023-01-29T13:36:36;98613.31;;;-0.95;90.74
54910;BME280;63189;51.240;9.964;2023-01-29T13:39:07;98614.19;;;-0.95;90.80
54910;BME280;63189;51.240;9.964;2023-01-29T13:41:41;98609.91;;;-0.96;91.34
54910;BME280;63189;51.240;9.964;2023-01-29T13:44:36;98617.72;;;-0.91;92.16
54910;BME280;63189;51.240;9.964;2023-01-29T13:47:05;98615.22;;;-0.88;91.60
54910;BME280;63189;51.240;9.964;2023-01-29T13:49:34;98608.34;;;-0.91;91.39
54910;BME280;63189;51.240;9.964;2023-01-29T13:55:01;98602.47;;;-0.87;91.86
54910;BME280;63189;51.240;9.964;2023-01-29T13:57:45;98611.88;;;-0.85;91.08
54910;BME280;63189;51.240;9.964;2023-01-29T14:02:47;98617.00;;;-0.85;90.53
54910;BME280;63189;51.240;9.964;2023-01-29T14:05:40;98613.75;;;-0.78;91.55
54910;BME280;63189;51.240;9.964;2023-01-29T14:10:37;98612.97;;;-0.76;90.74
54910;BME280;63189;51.240;9.964;2023-01-29T14:15:36;98610.34;;;-0.79;90.28
54910;BME280;63189;51.240;9.964;2023-01-29T14:20:59;98602.75;;;-0.74;90.78
54910;BME280;63189;51.240;9.964;2023-01-29T14:23:47;98613.00;;;-0.74;90.23
54910;BME280;63189;51.240;9.964;2023-01-29T14:34:31;98592.50;;;-0.74;89.40
54910;BME280;63189;51.240;9.964;2023-01-29T14:37:19;98594.34;;;-0.70;89.82
54910;BME280;63189;51.240;9.964;2023-01-29T14:39:47;98591.75;;;-0.72;88.69
54910;BME280;63189;51.240;9.964;2023-01-29T14:42:25;98584.09;;;-0.70;89.36
54910;BME280;63189;51.240;9.964;2023-01-29T14:55:49;98581.66;;;-0.64;87.90
54910;BME280;63189;51.240;9.964;2023-01-29T14:58:24;98598.84;;;-0.60;87.82
54910;BME280;63189;51.240;9.964;2023-01-29T15:00:54;98591.16;;;-0.60;87.37
54910;BME280;63189;51.240;9.964;2023-01-29T15:03:41;98590.38;;;-0.57;87.43
54910;BME280;63189;51.240;9.964;2023-01-29T15:06:15;98596.38;;;-0.55;87.55
54910;BME280;63189;51.240;9.964;2023-01-29T15:08:49;98597.28;;;-0.53;87.95
54910;BME280;63189;51.240;9.964;2023-01-29T15:11:26;98589.50;;;-0.58;87.44
54910;BME280;63189;51.240;9.964;2023-01-29T15:14:21;98600.66;;;-0.56;87.55
54910;BME280;63189;51.240;9.964;2023-01-29T15:17:21;98591.22;;;-0.57;87.86
54910;BME280;63189;51.240;9.964;2023-01-29T15:19:46;98592.94;;;-0.57;87.37
54910;BME280;63189;51.240;9.964;2023-01-29T15:22:20;98592.91;;;-0.59;87.71
54910;BME280;63189;51.240;9.964;2023-01-29T15:25:12;98599.59;;;-0.64;86.70
54910;BME280;63189;51.240;9.964;2023-01-29T15:27:44;98592.69;;;-0.68;85.87
54910;BME280;63189;51.240;9.964;2023-01-29T15:30:15;98590.91;;;-0.71;86.86
54910;BME280;63189;51.240;9.964;2023-01-29T15:32:41;98586.72;;;-0.67;87.06
54910;BME280;63189;51.240;9.964;2023-01-29T15:35:09;98582.28;;;-0.74;86.31
54910;BME280;63189;51.240;9.964;2023-01-29T15:37:36;98586.44;;;-0.79;86.48